Turkeyfoot, Pennsylvania
Current Conditions -  °F | °C
As of 10:53 PM on Wednesday 26 Nov 2014 (Local Time) from KHGR Reporting Station
Overcast Overcast  
Wind Chill: 29°   Ceiling: 6500
Heat Index: 35°   Visibility: 10mi
Dew Point: 30°   Wind: 8mph
Humidity: 82%   Direction: 330°NNW
Pressure: 29.98"   Gusts: NA
Location:  39.9438°N, 77.6827°W
Report Text: KHGR 270353Z AUTO 33007KT 10SM OVC065 02/M01 A2998 RMK AO2 SLP170 T00171011 TSNO
Loading
Personal Weather Stations






























Interactive Weather Map New forecast layout! Learn more

10-Day Weather Forecast

Advertisements
Track Severe Weather on mobile